Terminal Aerodrome Forecast
Issued by NWS Atlanta, GA

Home | Current Version | Previous Version | Text Only | Print | Product List | Glossary On
Versions: 1 2 3 4 5 6 7 8 9 10 11 12 13 14 15 16 17 18 19 20 21
000
FTUS42 KFFC 281733
TAFCSG
TAF
KCSG 281733Z 2818/2918 24008KT P6SM VCSH BKN035
     FM282300 24005KT P6SM SCT040
     FM290200 00000KT P6SM FEW100
     FM291000 00000KT 6SM BR BKN015
     FM291200 00000KT 3SM BR SCT012
     FM291400 00000KT P6SM BKN020
     FM291600 00000KT P6SM BKN040=

USA.gov is the U.S. government's official web portal to all federal, state and local government web resources and services.